^^
Your Local Weather - Clay, NY Station Historical Data
Daily Summary for March 22, 2017 Units:  English    Metric   Both
« Previous Day
Next Day »
Daily Weekly Monthly Yearly Custom
  High: Low: Average:
Temperature: 36.3 °F 16.0 °F 21.7 °F
Dew Point: 29.1 °F -1.3 °F 8.6 °F
Humidity: 89% 39% 58%
Wind Speed: 11.0mph 0.0mph 5.3mph
Wind Gust: 20.0mph - -
Wind- - WNW
Pressure: 30.47 in 29.89 in -
Precipitation: 0.00 in    
Historical Graphs
 
 
Tabular Data for March 22, 2017
Time Temperature Dew Point Pressure Wind Wind Speed Wind Gust Humidity Rainfall Rate (Hourly) solar
00:00 36.2 °F 25.9 °F 29.89 in WNW 4.0 mph 4.0 mph 66% 0.00 in 0 W/m2
00:06 36.3 °F 26.0 °F 29.89 in West 5.0 mph 6.0 mph 66% 0.00 in 0 W/m2
00:12 36.3 °F 26.4 °F 29.89 in WNW 6.0 mph 9.0 mph 67% 0.00 in 0 W/m2
00:18 36.2 °F 27.0 °F 29.89 in West 5.0 mph 9.0 mph 69% 0.00 in 0 W/m2
00:24 36.0 °F 27.2 °F 29.89 in West 5.0 mph 7.0 mph 70% 0.00 in 0 W/m2
00:30 35.8 °F 27.3 °F 29.89 in WSW 5.0 mph 5.0 mph 71% 0.00 in 0 W/m2
00:36 35.7 °F 27.6 °F 29.89 in WNW 4.0 mph 5.0 mph 72% 0.00 in 0 W/m2
00:42 35.4 °F 27.6 °F 29.89 in West 4.0 mph 8.0 mph 73% 0.00 in 0 W/m2
00:48 35.3 °F 27.8 °F 29.89 in WSW 4.0 mph 8.0 mph 74% 0.00 in 0 W/m2
00:54 35.3 °F 27.8 °F 29.89 in WNW 4.0 mph 6.0 mph 74% 0.00 in 0 W/m2
01:00 35.0 °F 27.9 °F 29.89 in West 5.0 mph 5.0 mph 75% 0.00 in 0 W/m2
01:06 34.7 °F 27.9 °F 29.89 in WNW 4.0 mph 5.0 mph 76% 0.00 in 0 W/m2
01:12 33.9 °F 28.7 °F 29.90 in WNW 4.0 mph 4.0 mph 81% 0.00 in 0 W/m2
01:18 33.5 °F 28.9 °F 29.90 in WNW 4.0 mph 4.0 mph 83% 0.00 in 0 W/m2
01:24 33.2 °F 28.9 °F 29.90 in WNW 3.0 mph 4.0 mph 84% 0.00 in 0 W/m2
01:30 33.1 °F 29.1 °F 29.90 in WNW 3.0 mph 3.0 mph 85% 0.00 in 0 W/m2
01:38 33.3 °F 29.0 °F 29.91 in WNW 5.0 mph 8.0 mph 84% 0.00 in 0 W/m2
01:44 33.0 °F 28.4 °F 29.91 in WNW 6.0 mph 8.0 mph 83% 0.00 in 0 W/m2
01:50 32.7 °F 28.1 °F 29.91 in WNW 5.0 mph 8.0 mph 83% 0.00 in 0 W/m2
01:56 32.5 °F 27.9 °F 29.91 in North 4.0 mph 8.0 mph 83% 0.00 in 0 W/m2
02:02 32.3 °F 27.7 °F 29.92 in NW 4.0 mph 8.0 mph 83% 0.00 in 0 W/m2
02:08 32.2 °F 27.3 °F 29.92 in NW 4.0 mph 8.0 mph 82% 0.00 in 0 W/m2
02:14 32.0 °F 27.1 °F 29.92 in WNW 4.0 mph 6.0 mph 82% 0.00 in 0 W/m2
02:20 31.7 °F 26.8 °F 29.94 in NW 5.0 mph 5.0 mph 82% 0.00 in 0 W/m2
02:26 30.7 °F 26.4 °F 29.94 in NW 5.0 mph 9.0 mph 84% 0.00 in 0 W/m2
02:32 29.7 °F 26.0 °F 29.95 in NW 6.0 mph 8.0 mph 86% 0.00 in 0 W/m2
02:38 28.8 °F 25.4 °F 29.96 in NNW 7.0 mph 10.0 mph 87% 0.00 in 0 W/m2
02:44 27.8 °F 24.7 °F 29.97 in NW 8.0 mph 8.0 mph 88% 0.00 in 0 W/m2
02:50 27.2 °F 24.1 °F 29.97 in NNW 7.0 mph 9.0 mph 88% 0.00 in 0 W/m2
02:56 26.7 °F 23.9 °F 29.97 in NW 7.0 mph 13.0 mph 89% 0.00 in 0 W/m2
03:02 26.4 °F 23.6 °F 29.98 in NW 7.0 mph 9.0 mph 89% 0.00 in 0 W/m2
03:08 26.2 °F 23.1 °F 29.99 in NNW 7.0 mph 10.0 mph 88% 0.00 in 0 W/m2
03:14 26.2 °F 22.9 °F 29.99 in NNW 7.0 mph 11.0 mph 87% 0.00 in 0 W/m2
03:20 26.3 °F 22.7 °F 29.99 in NW 6.0 mph 6.0 mph 86% 0.00 in 0 W/m2
03:26 26.2 °F 22.0 °F 29.99 in NW 6.0 mph 8.0 mph 84% 0.00 in 0 W/m2
03:32 25.9 °F 20.9 °F 30.00 in WNW 7.0 mph 7.0 mph 81% 0.00 in 0 W/m2
03:38 25.8 °F 20.5 °F 30.01 in WNW 7.0 mph 12.0 mph 80% 0.00 in 0 W/m2
03:46 25.6 °F 20.0 °F 30.02 in NNW 6.0 mph 9.0 mph 79% 0.00 in 0 W/m2
03:52 25.3 °F 20.0 °F 30.03 in NW 6.0 mph 10.0 mph 80% 0.00 in 0 W/m2
03:58 24.8 °F 19.8 °F 30.03 in NW 7.0 mph 10.0 mph 81% 0.00 in 0 W/m2
04:04 24.3 °F 19.6 °F 30.03 in NW 8.0 mph 10.0 mph 82% 0.00 in 0 W/m2
04:10 23.8 °F 19.1 °F 30.05 in WNW 6.0 mph 6.0 mph 82% 0.00 in 0 W/m2
04:16 23.3 °F 18.3 °F 30.05 in NW 6.0 mph 11.0 mph 81% 0.00 in 0 W/m2
04:22 23.1 °F 17.8 °F 30.06 in NW 6.0 mph 6.0 mph 80% 0.00 in 0 W/m2
04:28 23.2 °F 17.4 °F 30.06 in NW 6.0 mph 7.0 mph 78% 0.00 in 0 W/m2
04:34 23.2 °F 16.4 °F 30.07 in NNW 6.0 mph 14.0 mph 75% 0.00 in 0 W/m2
04:40 23.1 °F 16.0 °F 30.08 in NW 6.0 mph 6.0 mph 74% 0.00 in 0 W/m2
04:46 22.8 °F 14.5 °F 30.08 in NNW 7.0 mph 10.0 mph 70% 0.00 in 0 W/m2
04:52 22.6 °F 13.3 °F 30.08 in NNW 9.0 mph 14.0 mph 67% 0.00 in 0 W/m2
04:58 22.6 °F 12.6 °F 30.09 in NNW 8.0 mph 14.0 mph 65% 0.00 in 0 W/m2
05:04 22.4 °F 12.4 °F 30.09 in NNE 9.0 mph 12.0 mph 65% 0.00 in 0 W/m2
05:10 22.1 °F 12.5 °F 30.10 in North 9.0 mph 10.0 mph 66% 0.00 in 0 W/m2
05:16 21.8 °F 12.5 °F 30.10 in NW 10.0 mph 15.0 mph 67% 0.00 in 0 W/m2
05:22 21.5 °F 12.6 °F 30.10 in NNW 11.0 mph 11.0 mph 68% 0.00 in 0 W/m2
05:28 21.2 °F 12.3 °F 30.11 in North 11.0 mph 11.0 mph 68% 0.00 in 0 W/m2
05:34 21.0 °F 11.4 °F 30.11 in NNW 9.0 mph 10.0 mph 66% 0.00 in 0 W/m2
05:40 20.9 °F 10.6 °F 30.12 in NNW 8.0 mph 11.0 mph 64% 0.00 in 0 W/m2
05:42 20.8 °F 10.5 °F 30.13 in North 8.0 mph 11.0 mph 64% 0.00 in 0 W/m2
05:48 20.4 °F 9.1 °F 30.13 in NNE 9.0 mph 20.0 mph 61% 0.00 in 0 W/m2
05:54 20.0 °F 8.3 °F 30.14 in NNW 10.0 mph 14.0 mph 60% 0.00 in 0 W/m2
06:02 19.6 °F 8.7 °F 30.15 in NNW 10.0 mph 14.0 mph 62% 0.00 in 0 W/m2
06:08 19.4 °F 7.8 °F 30.15 in NNW 11.0 mph 14.0 mph 60% 0.00 in 0 W/m2
06:14 19.1 °F 6.7 °F 30.16 in NNE 9.0 mph 14.0 mph 58% 0.00 in 0 W/m2
06:20 18.7 °F 5.6 °F 30.17 in North 9.0 mph 9.0 mph 56% 0.00 in 0 W/m2
06:26 18.4 °F 5.3 °F 30.17 in North 8.0 mph 9.0 mph 56% 0.00 in 0 W/m2
06:32 18.2 °F 5.1 °F 30.18 in NW 5.0 mph 6.0 mph 56% 0.00 in 0 W/m2
06:38 18.1 °F 4.6 °F 30.19 in NNW 6.0 mph 6.0 mph 55% 0.00 in 0 W/m2
06:44 18.1 °F 4.2 °F 30.19 in NNW 7.0 mph 8.0 mph 54% 0.00 in 0 W/m2
06:50 18.1 °F 4.6 °F 30.20 in NW 8.0 mph 9.0 mph 55% 0.00 in 0 W/m2
06:56 17.9 °F 5.2 °F 30.21 in NW 8.0 mph 11.0 mph 57% 0.00 in 0 W/m2
07:02 17.8 °F 5.1 °F 30.21 in NNE 8.0 mph 8.0 mph 57% 0.00 in 0 W/m2
07:08 17.7 °F 4.2 °F 30.22 in NW 8.0 mph 9.0 mph 55% 0.00 in 9 W/m2
07:14 17.7 °F 4.6 °F 30.23 in NW 6.0 mph 7.0 mph 56% 0.00 in 18 W/m2
07:20 17.7 °F 4.2 °F 30.23 in NW 6.0 mph 10.0 mph 55% 0.00 in 23 W/m2
07:26 17.5 °F 4.5 °F 30.24 in NW 8.0 mph 13.0 mph 56% 0.00 in 16 W/m2
07:32 17.3 °F 4.3 °F 30.24 in NNE 9.0 mph 13.0 mph 56% 0.00 in 23 W/m2
07:38 17.0 °F 2.8 °F 30.24 in NNW 10.0 mph 13.0 mph 53% 0.00 in 26 W/m2
07:44 16.6 °F 2.0 °F 30.25 in North 11.0 mph 11.0 mph 52% 0.00 in 42 W/m2
07:50 16.4 °F 1.4 °F 30.25 in North 9.0 mph 9.0 mph 51% 0.00 in 47 W/m2
07:56 16.2 °F 0.8 °F 30.26 in North 8.0 mph 9.0 mph 50% 0.00 in 67 W/m2
08:02 16.3 °F 1.3 °F 30.26 in North 8.0 mph 13.0 mph 51% 0.00 in 53 W/m2
08:08 16.2 °F 0.8 °F 30.27 in NNW 8.0 mph 13.0 mph 50% 0.00 in 91 W/m2
08:14 16.4 °F 1.0 °F 30.27 in NNE 8.0 mph 9.0 mph 50% 0.00 in 95 W/m2
08:20 16.4 °F 0.5 °F 30.27 in NW 8.0 mph 8.0 mph 49% 0.00 in 95 W/m2
08:26 16.3 °F 0.5 °F 30.28 in NW 9.0 mph 13.0 mph 49% 0.00 in 137 W/m2
08:32 16.5 °F 0.6 °F 30.29 in North 9.0 mph 10.0 mph 49% 0.00 in 156 W/m2
08:38 16.6 °F 0.7 °F 30.29 in North 8.0 mph 11.0 mph 49% 0.00 in 146 W/m2
08:44 16.6 °F 0.7 °F 30.29 in North 8.0 mph 12.0 mph 49% 0.00 in 206 W/m2
08:50 16.5 °F 1.5 °F 30.29 in NNE 9.0 mph 10.0 mph 51% 0.00 in 204 W/m2
08:56 16.7 °F 1.3 °F 30.30 in NNW 7.0 mph 10.0 mph 50% 0.00 in 195 W/m2
09:02 16.4 °F 1.8 °F 30.30 in NNW 9.0 mph 9.0 mph 52% 0.00 in 120 W/m2
09:08 16.6 °F 1.6 °F 30.30 in North 8.0 mph 11.0 mph 51% 0.00 in 213 W/m2
09:14 16.7 °F 1.7 °F 30.31 in North 9.0 mph 14.0 mph 51% 0.00 in 188 W/m2
09:20 17.2 °F 2.6 °F 30.32 in NW 6.0 mph 6.0 mph 52% 0.00 in 250 W/m2
09:26 16.9 °F 3.1 °F 30.32 in WNW 7.0 mph 7.0 mph 54% 0.00 in 190 W/m2
09:32 16.9 °F 2.3 °F 30.32 in NNW 7.0 mph 7.0 mph 52% 0.00 in 323 W/m2
09:38 17.2 °F 2.1 °F 30.32 in NNW 8.0 mph 12.0 mph 51% 0.00 in 336 W/m2
09:44 16.9 °F 3.5 °F 30.32 in NNW 8.0 mph 9.0 mph 55% 0.00 in 454 W/m2
09:50 17.6 °F 3.8 °F 30.32 in NNW 8.0 mph 8.0 mph 54% 0.00 in 457 W/m2
09:56 18.4 °F 4.1 °F 30.33 in NW 7.0 mph 9.0 mph 53% 0.00 in 596 W/m2
10:02 18.2 °F 4.3 °F 30.33 in West 8.0 mph 9.0 mph 54% 0.00 in 295 W/m2
10:08 18.4 °F 4.5 °F 30.34 in NNW 7.0 mph 9.0 mph 54% 0.00 in 550 W/m2
10:14 17.5 °F 6.0 °F 30.34 in NNW 8.0 mph 12.0 mph 60% 0.00 in 448 W/m2
10:20 16.9 °F 6.5 °F 30.35 in NNW 7.0 mph 7.0 mph 63% 0.00 in 287 W/m2
10:26 16.7 °F 6.6 °F 30.35 in NW 6.0 mph 9.0 mph 64% 0.00 in 223 W/m2
10:32 17.0 °F 8.6 °F 30.35 in NW 7.0 mph 9.0 mph 69% 0.00 in 401 W/m2
10:38 17.4 °F 8.6 °F 30.35 in NW 7.0 mph 11.0 mph 68% 0.00 in 464 W/m2
10:44 17.0 °F 9.2 °F 30.36 in North 7.0 mph 8.0 mph 71% 0.00 in 274 W/m2
10:50 16.0 °F 8.9 °F 30.36 in NW 7.0 mph 7.0 mph 73% 0.00 in 183 W/m2
10:56 16.5 °F 8.4 °F 30.36 in NW 7.0 mph 8.0 mph 70% 0.00 in 541 W/m2
11:02 16.5 °F 10.0 °F 30.37 in NNW 8.0 mph 9.0 mph 75% 0.00 in 483 W/m2
11:08 17.2 °F 10.0 °F 30.37 in NNW 7.0 mph 11.0 mph 73% 0.00 in 770 W/m2
11:14 17.2 °F 9.7 °F 30.37 in NNW 7.0 mph 11.0 mph 72% 0.00 in 594 W/m2
11:20 17.1 °F 9.9 °F 30.37 in North 8.0 mph 8.0 mph 73% 0.00 in 744 W/m2
11:26 17.5 °F 9.7 °F 30.37 in NNW 8.0 mph 8.0 mph 71% 0.00 in 670 W/m2
11:32 16.8 °F 9.6 °F 30.38 in NNW 8.0 mph 8.0 mph 73% 0.00 in 703 W/m2
11:38 17.9 °F 7.4 °F 30.37 in North 7.0 mph 12.0 mph 63% 0.00 in 886 W/m2
11:44 18.4 °F 6.1 °F 30.38 in NNW 7.0 mph 12.0 mph 58% 0.00 in 626 W/m2
11:50 17.5 °F 4.8 °F 30.38 in NNW 7.0 mph 8.0 mph 57% 0.00 in 186 W/m2
11:56 18.5 °F 2.0 °F 30.38 in NNW 8.0 mph 13.0 mph 48% 0.00 in 877 W/m2
12:02 18.7 °F 2.7 °F 30.38 in NW 8.0 mph 8.0 mph 49% 0.00 in 308 W/m2
12:08 18.9 °F 1.5 °F 30.38 in NNE 7.0 mph 10.0 mph 46% 0.00 in 969 W/m2
12:14 19.4 °F 2.4 °F 30.38 in NNE 7.0 mph 9.0 mph 47% 0.00 in 438 W/m2
12:20 19.3 °F 3.7 °F 30.38 in NW 7.0 mph 7.0 mph 50% 0.00 in 432 W/m2
12:26 19.1 °F 4.3 °F 30.39 in NNW 6.0 mph 8.0 mph 52% 0.00 in 403 W/m2
12:32 18.9 °F 5.4 °F 30.38 in NW 5.0 mph 9.0 mph 55% 0.00 in 388 W/m2
12:38 19.7 °F 5.7 °F 30.38 in NNW 5.0 mph 9.0 mph 54% 0.00 in 408 W/m2
12:44 19.9 °F 4.2 °F 30.39 in WNW 5.0 mph 6.0 mph 50% 0.00 in 737 W/m2
12:50 20.6 °F 1.6 °F 30.39 in NNW 5.0 mph 7.0 mph 43% 0.00 in 842 W/m2
12:56 20.5 °F 0.5 °F 30.40 in North 6.0 mph 8.0 mph 41% 0.00 in 828 W/m2
13:02 19.7 °F -1.3 °F 30.40 in NNW 7.0 mph 12.0 mph 39% 0.00 in 823 W/m2
13:08 20.0 °F 0.0 °F 30.40 in WNW 7.0 mph 12.0 mph 41% 0.00 in 819 W/m2
13:14 20.4 °F -0.7 °F 30.40 in North 6.0 mph 7.0 mph 39% 0.00 in 816 W/m2
13:20 20.8 °F 1.3 °F 30.40 in North 6.0 mph 6.0 mph 42% 0.00 in 819 W/m2
13:26 21.2 °F 1.6 °F 30.41 in WNW 5.0 mph 6.0 mph 42% 0.00 in 831 W/m2
13:32 20.5 °F 0.5 °F 30.41 in North 6.0 mph 8.0 mph 41% 0.00 in 858 W/m2
13:38 20.0 °F 0.6 °F 30.40 in NNW 7.0 mph 10.0 mph 42% 0.00 in 805 W/m2
13:44 20.2 °F 1.7 °F 30.41 in NW 8.0 mph 10.0 mph 44% 0.00 in 946 W/m2
13:52 20.3 °F 0.3 °F 30.41 in WNW 6.0 mph 9.0 mph 41% 0.00 in 817 W/m2
13:58 20.4 °F -0.1 °F 30.41 in NNW 7.0 mph 9.0 mph 40% 0.00 in 798 W/m2
14:04 20.8 °F 1.8 °F 30.40 in NNW 7.0 mph 13.0 mph 43% 0.00 in 793 W/m2
14:10 21.0 °F -0.1 °F 30.41 in West 7.0 mph 10.0 mph 39% 0.00 in 788 W/m2
14:16 20.5 °F 0.0 °F 30.40 in NW 8.0 mph 10.0 mph 40% 0.00 in 784 W/m2
14:22 21.4 °F 0.8 °F 30.41 in NNW 7.0 mph 7.0 mph 40% 0.00 in 777 W/m2
14:28 21.1 °F 1.0 °F 30.41 in NW 7.0 mph 7.0 mph 41% 0.00 in 770 W/m2
14:34 21.1 °F 1.6 °F 30.40 in NNW 7.0 mph 7.0 mph 42% 0.00 in 765 W/m2
14:40 21.6 °F 1.5 °F 30.41 in NW 7.0 mph 7.0 mph 41% 0.00 in 759 W/m2
14:46 21.6 °F 2.5 °F 30.41 in NW 7.0 mph 7.0 mph 43% 0.00 in 763 W/m2
14:52 22.3 °F 3.2 °F 30.41 in NW 6.0 mph 6.0 mph 43% 0.00 in 763 W/m2
14:58 22.3 °F 2.6 °F 30.41 in NW 6.0 mph 10.0 mph 42% 0.00 in 782 W/m2
15:04 22.7 °F 3.0 °F 30.41 in WNW 6.0 mph 11.0 mph 42% 0.00 in 795 W/m2
15:10 22.1 °F 3.5 °F 30.41 in NW 6.0 mph 6.0 mph 44% 0.00 in 745 W/m2
15:16 21.7 °F 4.1 °F 30.42 in NW 6.0 mph 6.0 mph 46% 0.00 in 888 W/m2
15:18 22.6 °F 4.9 °F 30.42 in NW 5.0 mph 6.0 mph 46% 0.00 in 888 W/m2
15:24 22.8 °F 4.6 °F 30.42 in WNW 6.0 mph 14.0 mph 45% 0.00 in 710 W/m2
15:30 21.8 °F 4.2 °F 30.42 in NW 6.0 mph 6.0 mph 46% 0.00 in 197 W/m2
15:36 22.0 °F 2.9 °F 30.42 in West 6.0 mph 10.0 mph 43% 0.00 in 728 W/m2
15:38 21.9 °F 2.8 °F 30.41 in NNW 6.0 mph 10.0 mph 43% 0.00 in 680 W/m2
15:42 22.2 °F 3.1 °F 30.42 in NNW 7.0 mph 10.0 mph 43% 0.00 in 687 W/m2
15:44 22.4 °F 3.2 °F 30.42 in NNW 7.0 mph 10.0 mph 43% 0.00 in 666 W/m2
15:50 22.2 °F 3.1 °F 30.41 in West 6.0 mph 6.0 mph 43% 0.00 in 425 W/m2
15:54 23.1 °F 4.9 °F 30.41 in NNW 5.0 mph 9.0 mph 45% 0.00 in 679 W/m2
15:56 23.1 °F 3.4 °F 30.42 in NNW 6.0 mph 9.0 mph 42% 0.00 in 719 W/m2
16:02 23.0 °F 2.8 °F 30.42 in NW 6.0 mph 7.0 mph 41% 0.00 in 656 W/m2
16:06 22.9 °F 3.2 °F 30.42 in NNW 6.0 mph 11.0 mph 42% 0.00 in 610 W/m2
16:10 22.9 °F 3.7 °F 30.42 in NW 6.0 mph 6.0 mph 43% 0.00 in 594 W/m2
16:16 23.1 °F 3.9 °F 30.42 in West 4.0 mph 6.0 mph 43% 0.00 in 548 W/m2
16:22 23.3 °F 3.0 °F 30.42 in NNW 5.0 mph 6.0 mph 41% 0.00 in 566 W/m2
16:28 23.4 °F 3.1 °F 30.42 in West 5.0 mph 6.0 mph 41% 0.00 in 520 W/m2
16:34 22.7 °F 2.0 °F 30.42 in WNW 6.0 mph 7.0 mph 40% 0.00 in 508 W/m2
16:40 22.7 °F 3.5 °F 30.42 in West 6.0 mph 7.0 mph 43% 0.00 in 504 W/m2
16:42 23.1 °F 3.9 °F 30.42 in WNW 5.0 mph 7.0 mph 43% 0.00 in 483 W/m2
16:48 22.6 °F 2.4 °F 30.42 in NW 5.0 mph 9.0 mph 41% 0.00 in 461 W/m2
16:54 22.7 °F 3.0 °F 30.43 in NW 6.0 mph 9.0 mph 42% 0.00 in 443 W/m2
17:00 23.0 °F 3.3 °F 30.42 in NNW 6.0 mph 6.0 mph 42% 0.00 in 425 W/m2
17:06 23.1 °F 3.9 °F 30.43 in North 6.0 mph 6.0 mph 43% 0.00 in 390 W/m2
17:08 23.1 °F 2.9 °F 30.43 in NNW 5.0 mph 8.0 mph 41% 0.00 in 401 W/m2
17:12 22.9 °F 3.2 °F 30.43 in WNW 5.0 mph 6.0 mph 42% 0.00 in 388 W/m2
17:18 23.2 °F 2.9 °F 30.43 in West 5.0 mph 6.0 mph 41% 0.00 in 371 W/m2
17:24 23.2 °F 2.9 °F 30.43 in NNW 4.0 mph 5.0 mph 41% 0.00 in 352 W/m2
17:30 23.2 °F 2.9 °F 30.43 in NW 5.0 mph 6.0 mph 41% 0.00 in 338 W/m2
17:36 22.8 °F 3.1 °F 30.43 in WNW 6.0 mph 6.0 mph 42% 0.00 in 311 W/m2
17:42 22.9 °F 3.2 °F 30.43 in NW 6.0 mph 6.0 mph 42% 0.00 in 297 W/m2
17:48 22.8 °F 2.6 °F 30.43 in NW 5.0 mph 8.0 mph 41% 0.00 in 274 W/m2
17:54 22.8 °F 3.1 °F 30.43 in NW 5.0 mph 5.0 mph 42% 0.00 in 257 W/m2
18:00 23.0 °F 3.3 °F 30.43 in WNW 5.0 mph 5.0 mph 42% 0.00 in 236 W/m2
18:06 23.0 °F 3.8 °F 30.43 in NW 4.0 mph 5.0 mph 43% 0.00 in 218 W/m2
18:12 23.1 °F 3.4 °F 30.43 in North 4.0 mph 4.0 mph 42% 0.00 in 179 W/m2
18:18 22.9 °F 3.2 °F 30.43 in NNW 5.0 mph 7.0 mph 42% 0.00 in 176 W/m2
18:24 22.8 °F 4.1 °F 30.43 in NW 5.0 mph 7.0 mph 44% 0.00 in 160 W/m2
18:30 22.8 °F 4.6 °F 30.43 in NW 3.0 mph 3.0 mph 45% 0.00 in 141 W/m2
18:36 22.4 °F 4.2 °F 30.44 in NW 3.0 mph 6.0 mph 45% 0.00 in 28 W/m2
18:42 22.1 °F 4.4 °F 30.44 in NNW 3.0 mph 5.0 mph 46% 0.00 in 23 W/m2
18:48 22.0 °F 4.3 °F 30.44 in WNW 3.0 mph 5.0 mph 46% 0.00 in 69 W/m2
18:54 22.2 °F 5.0 °F 30.44 in WNW 3.0 mph 3.0 mph 47% 0.00 in 56 W/m2
19:00 22.1 °F 4.9 °F 30.44 in NW 3.0 mph 4.0 mph 47% 0.00 in 32 W/m2
19:06 21.8 °F 4.6 °F 30.44 in NW 3.0 mph 4.0 mph 47% 0.00 in 12 W/m2
19:12 21.6 °F 4.4 °F 30.45 in WNW 3.0 mph 3.0 mph 47% 0.00 in 9 W/m2
19:18 21.3 °F 4.6 °F 30.44 in NNW 2.0 mph 3.0 mph 48% 0.00 in 5 W/m2
19:24 21.1 °F 4.4 °F 30.45 in WNW 2.0 mph 5.0 mph 48% 0.00 in 0 W/m2
19:30 20.9 °F 4.7 °F 30.45 in NNW 2.0 mph 2.0 mph 49% 0.00 in 0 W/m2
19:36 20.7 °F 5.0 °F 30.45 in NNW 1.0 mph 3.0 mph 50% 0.00 in 0 W/m2
19:42 20.9 °F 4.7 °F 30.45 in NW 2.0 mph 3.0 mph 49% 0.00 in 0 W/m2
19:48 20.8 °F 5.1 °F 30.45 in NW 1.0 mph 3.0 mph 50% 0.00 in 0 W/m2
19:54 20.8 °F 4.6 °F 30.45 in NW 1.0 mph 3.0 mph 49% 0.00 in 0 W/m2
20:00 20.8 °F 5.1 °F 30.45 in NW 1.0 mph 1.0 mph 50% 0.00 in 0 W/m2
20:06 20.7 °F 5.0 °F 30.45 in Calm   4.0 mph 50% 0.00 in 0 W/m2
20:12 20.6 °F 5.3 °F 30.45 in Calm   1.0 mph 51% 0.00 in 0 W/m2
20:18 20.5 °F 5.6 °F 30.45 in Calm   1.0 mph 52% 0.00 in 0 W/m2
20:24 20.4 °F 6.0 °F 30.45 in Calm   2.0 mph 53% 0.00 in 0 W/m2
20:30 20.2 °F 5.8 °F 30.45 in Calm     53% 0.00 in 0 W/m2
20:36 20.0 °F 6.0 °F 30.45 in Calm     54% 0.00 in 0 W/m2
20:42 19.7 °F 6.5 °F 30.45 in Calm     56% 0.00 in 0 W/m2
20:48 19.4 °F 6.2 °F 30.45 in Calm     56% 0.00 in 0 W/m2
20:54 19.1 °F 6.3 °F 30.45 in Calm     57% 0.00 in 0 W/m2
21:00 18.8 °F 6.4 °F 30.46 in Calm     58% 0.00 in 0 W/m2
21:06 18.7 °F 6.7 °F 30.46 in Calm     59% 0.00 in 0 W/m2
21:12 18.6 °F 7.0 °F 30.46 in Calm     60% 0.00 in 0 W/m2
21:18 18.6 °F 7.0 °F 30.46 in Calm     60% 0.00 in 0 W/m2
21:24 18.5 °F 7.3 °F 30.46 in Calm     61% 0.00 in 0 W/m2
21:30 18.4 °F 7.2 °F 30.46 in Calm     61% 0.00 in 0 W/m2
21:36 18.5 °F 7.3 °F 30.46 in SW 1.0 mph 1.0 mph 61% 0.00 in 0 W/m2
21:42 18.5 °F 7.3 °F 30.46 in SW 1.0 mph 1.0 mph 61% 0.00 in 0 W/m2
21:48 18.6 °F 7.4 °F 30.46 in SW 1.0 mph 2.0 mph 61% 0.00 in 0 W/m2
21:54 18.6 °F 7.4 °F 30.46 in SW 1.0 mph 2.0 mph 61% 0.00 in 0 W/m2
22:00 18.6 °F 7.4 °F 30.46 in SW 1.0 mph 1.0 mph 61% 0.00 in 0 W/m2
22:06 18.6 °F 7.4 °F 30.46 in SW 1.0 mph 2.0 mph 61% 0.00 in 0 W/m2
22:12 18.5 °F 7.3 °F 30.47 in SW 1.0 mph 2.0 mph 61% 0.00 in 0 W/m2
22:14 18.5 °F 7.3 °F 30.47 in SW 1.0 mph 2.0 mph 61% 0.00 in 0 W/m2
22:20 18.3 °F 7.4 °F 30.47 in Calm     62% 0.00 in 0 W/m2
22:26 18.1 °F 7.3 °F 30.47 in Calm     62% 0.00 in 0 W/m2
22:32 17.9 °F 7.1 °F 30.47 in Calm     62% 0.00 in 0 W/m2
22:38 17.9 °F 7.1 °F 30.47 in Calm   1.0 mph 62% 0.00 in 0 W/m2
22:44 17.8 °F 7.3 °F 30.47 in Calm     63% 0.00 in 0 W/m2
22:50 17.7 °F 7.2 °F 30.47 in Calm     63% 0.00 in 0 W/m2
22:56 17.7 °F 7.2 °F 30.47 in Calm   2.0 mph 63% 0.00 in 0 W/m2
23:02 17.7 °F 7.2 °F 30.47 in Calm   2.0 mph 63% 0.00 in 0 W/m2
23:08 17.7 °F 7.2 °F 30.47 in Calm   2.0 mph 63% 0.00 in 0 W/m2
23:14 17.5 °F 7.0 °F 30.47 in Calm   1.0 mph 63% 0.00 in 0 W/m2
23:20 17.4 °F 6.9 °F 30.47 in Calm     63% 0.00 in 0 W/m2
23:26 17.5 °F 7.0 °F 30.47 in Calm     63% 0.00 in 0 W/m2
23:32 17.4 °F 6.9 °F 30.47 in Calm     63% 0.00 in 0 W/m2
23:38 17.3 °F 6.8 °F 30.47 in Calm     63% 0.00 in 0 W/m2
23:44 17.3 °F 6.8 °F 30.47 in Calm     63% 0.00 in 0 W/m2
23:50 17.3 °F 6.8 °F 30.47 in SW 1.0 mph 1.0 mph 63% 0.00 in 0 W/m2
23:56 17.4 °F 6.9 °F 30.47 in Calm   1.0 mph 63% 0.00 in 0 W/m2
Country Meadow, Clay, NY, USA
Compliments of Weather Underground - 2 mb